sensor_id;sensor_type;location;lat;lon;timestamp;pressure;altitude;pressure_sealevel;temperature;humidity
40872;BME280;26591;43.264;26.940;2023-05-16T00:00:14;98765.91;;;14.75;68.67
40872;BME280;26591;43.264;26.940;2023-05-16T00:02:40;98772.50;;;14.79;69.19
40872;BME280;26591;43.264;26.940;2023-05-16T00:05:05;98772.31;;;14.88;68.98
40872;BME280;26591;43.264;26.940;2023-05-16T00:07:35;98775.53;;;14.70;69.50
40872;BME280;26591;43.264;26.940;2023-05-16T00:10:01;98778.19;;;14.70;69.37
40872;BME280;26591;43.264;26.940;2023-05-16T00:12:27;98784.69;;;14.60;70.18
40872;BME280;26591;43.264;26.940;2023-05-16T00:14:53;98777.56;;;14.68;70.34
40872;BME280;26591;43.264;26.940;2023-05-16T00:17:19;98785.19;;;14.77;69.98
40872;BME280;26591;43.264;26.940;2023-05-16T00:23:07;98799.72;;;14.75;70.17
40872;BME280;26591;43.264;26.940;2023-05-16T00:25:33;98792.94;;;14.72;70.88
40872;BME280;26591;43.264;26.940;2023-05-16T00:27:58;98789.06;;;14.68;70.47
40872;BME280;26591;43.264;26.940;2023-05-16T00:30:24;98786.75;;;14.65;71.24
40872;BME280;26591;43.264;26.940;2023-05-16T00:32:49;98792.94;;;14.72;71.09
40872;BME280;26591;43.264;26.940;2023-05-16T00:35:15;98794.91;;;14.57;70.81
40872;BME280;26591;43.264;26.940;2023-05-16T00:37:40;98790.81;;;14.61;71.22
40872;BME280;26591;43.264;26.940;2023-05-16T00:40:06;98786.41;;;14.68;71.32
40872;BME280;26591;43.264;26.940;2023-05-16T00:42:32;98786.28;;;14.48;71.95
40872;BME280;26591;43.264;26.940;2023-05-16T00:44:58;98780.56;;;14.58;71.47
40872;BME280;26591;43.264;26.940;2023-05-16T00:47:23;98776.09;;;14.65;71.25
40872;BME280;26591;43.264;26.940;2023-05-16T00:49:49;98780.84;;;14.70;71.73
40872;BME280;26591;43.264;26.940;2023-05-16T00:52:17;98769.72;;;14.53;71.58
40872;BME280;26591;43.264;26.940;2023-05-16T00:54:42;98765.38;;;14.10;73.08
40872;BME280;26591;43.264;26.940;2023-05-16T00:57:08;98764.25;;;14.26;72.54
40872;BME280;26591;43.264;26.940;2023-05-16T00:59:36;98768.16;;;14.30;72.34
40872;BME280;26591;43.264;26.940;2023-05-16T01:02:01;98768.75;;;14.25;72.26
40872;BME280;26591;43.264;26.940;2023-05-16T01:04:27;98771.88;;;14.42;71.34
40872;BME280;26591;43.264;26.940;2023-05-16T01:06:55;98777.22;;;14.42;71.20
40872;BME280;26591;43.264;26.940;2023-05-16T01:09:21;98772.28;;;14.32;71.27
40872;BME280;26591;43.264;26.940;2023-05-16T01:11:55;98771.19;;;14.27;71.54
40872;BME280;26591;43.264;26.940;2023-05-16T01:17:20;98770.06;;;14.43;71.20
40872;BME280;26591;43.264;26.940;2023-05-16T01:22:28;98769.53;;;14.61;70.87
40872;BME280;26591;43.264;26.940;2023-05-16T01:25:11;98768.75;;;14.67;70.74
40872;BME280;26591;43.264;26.940;2023-05-16T01:27:43;98760.19;;;14.72;70.54
40872;BME280;26591;43.264;26.940;2023-05-16T01:30:14;98759.97;;;14.80;70.29
40872;BME280;26591;43.264;26.940;2023-05-16T01:32:40;98756.75;;;14.85;69.40
40872;BME280;26591;43.264;26.940;2023-05-16T01:35:06;98752.00;;;14.87;69.58
40872;BME280;26591;43.264;26.940;2023-05-16T01:43:33;98747.91;;;14.84;69.47
40872;BME280;26591;43.264;26.940;2023-05-16T01:46:09;98741.97;;;14.89;69.25
40872;BME280;26591;43.264;26.940;2023-05-16T01:51:50;98735.44;;;14.85;69.78
40872;BME280;26591;43.264;26.940;2023-05-16T01:54:18;98727.22;;;14.86;70.22
40872;BME280;26591;43.264;26.940;2023-05-16T01:56:54;98725.97;;;14.82;70.04
40872;BME280;26591;43.264;26.940;2023-05-16T01:59:22;98728.28;;;14.99;69.48
40872;BME280;26591;43.264;26.940;2023-05-16T02:04:57;98733.59;;;15.05;69.60
40872;BME280;26591;43.264;26.940;2023-05-16T02:07:22;98736.63;;;14.82;69.20
40872;BME280;26591;43.264;26.940;2023-05-16T02:10:04;98741.81;;;14.97;69.74
40872;BME280;26591;43.264;26.940;2023-05-16T02:12:30;98736.09;;;15.07;69.41
40872;BME280;26591;43.264;26.940;2023-05-16T02:14:55;98730.53;;;15.02;68.65
40872;BME280;26591;43.264;26.940;2023-05-16T02:17:20;98726.22;;;15.01;68.26
40872;BME280;26591;43.264;26.940;2023-05-16T02:19:46;98734.00;;;15.09;68.70
40872;BME280;26591;43.264;26.940;2023-05-16T02:22:12;98735.25;;;15.13;68.44
40872;BME280;26591;43.264;26.940;2023-05-16T02:24:37;98741.38;;;15.00;69.42
40872;BME280;26591;43.264;26.940;2023-05-16T02:27:03;98745.03;;;14.79;70.45
40872;BME280;26591;43.264;26.940;2023-05-16T02:29:28;98742.53;;;14.71;70.43
40872;BME280;26591;43.264;26.940;2023-05-16T02:31:57;98740.31;;;14.81;70.57
40872;BME280;26591;43.264;26.940;2023-05-16T02:34:23;98740.59;;;14.51;71.63
40872;BME280;26591;43.264;26.940;2023-05-16T02:36:48;98740.91;;;14.70;71.24
40872;BME280;26591;43.264;26.940;2023-05-16T02:39:13;98739.63;;;14.65;70.95
40872;BME280;26591;43.264;26.940;2023-05-16T02:41:39;98753.41;;;14.69;71.54
40872;BME280;26591;43.264;26.940;2023-05-16T02:44:04;98748.69;;;14.71;71.67
40872;BME280;26591;43.264;26.940;2023-05-16T02:46:32;98747.78;;;14.50;71.98
40872;BME280;26591;43.264;26.940;2023-05-16T02:48:59;98739.13;;;14.84;73.12
40872;BME280;26591;43.264;26.940;2023-05-16T02:51:26;98748.38;;;15.15;72.28
40872;BME280;26591;43.264;26.940;2023-05-16T02:54:07;98743.47;;;15.25;71.31
40872;BME280;26591;43.264;26.940;2023-05-16T02:56:34;98745.09;;;14.99;70.42
40872;BME280;26591;43.264;26.940;2023-05-16T02:59:00;98753.50;;;15.03;70.62
40872;BME280;26591;43.264;26.940;2023-05-16T03:01:35;98745.66;;;14.94;70.44
40872;BME280;26591;43.264;26.940;2023-05-16T03:04:00;98748.50;;;14.73;71.03
40872;BME280;26591;43.264;26.940;2023-05-16T03:06:26;98751.91;;;14.60;71.69
40872;BME280;26591;43.264;26.940;2023-05-16T03:08:51;98757.50;;;14.72;71.38
40872;BME280;26591;43.264;26.940;2023-05-16T03:11:17;98763.69;;;14.86;71.49
40872;BME280;26591;43.264;26.940;2023-05-16T03:13:47;98759.97;;;14.80;71.10
40872;BME280;26591;43.264;26.940;2023-05-16T03:16:13;98765.31;;;14.87;70.83
40872;BME280;26591;43.264;26.940;2023-05-16T03:18:39;98752.63;;;14.89;71.34
40872;BME280;26591;43.264;26.940;2023-05-16T03:21:05;98766.56;;;14.91;71.34
40872;BME280;26591;43.264;26.940;2023-05-16T03:23:31;98762.25;;;14.83;70.78
40872;BME280;26591;43.264;26.940;2023-05-16T03:25:56;98754.03;;;14.78;71.62
40872;BME280;26591;43.264;26.940;2023-05-16T03:28:22;98757.75;;;14.77;71.99
40872;BME280;26591;43.264;26.940;2023-05-16T03:30:47;98764.34;;;15.01;71.30
40872;BME280;26591;43.264;26.940;2023-05-16T03:33:12;98766.81;;;15.03;71.09
40872;BME280;26591;43.264;26.940;2023-05-16T03:35:38;98767.22;;;15.00;71.05
40872;BME280;26591;43.264;26.940;2023-05-16T03:38:04;98777.66;;;14.94;70.75
40872;BME280;26591;43.264;26.940;2023-05-16T03:40:30;98782.34;;;14.86;71.04
40872;BME280;26591;43.264;26.940;2023-05-16T03:42:56;98773.75;;;14.90;70.72
40872;BME280;26591;43.264;26.940;2023-05-16T03:45:21;98780.78;;;15.05;70.80
40872;BME280;26591;43.264;26.940;2023-05-16T03:47:48;98778.31;;;15.17;70.44
40872;BME280;26591;43.264;26.940;2023-05-16T03:50:13;98773.75;;;14.90;70.57
40872;BME280;26591;43.264;26.940;2023-05-16T03:52:39;98782.00;;;15.09;69.94
40872;BME280;26591;43.264;26.940;2023-05-16T03:55:05;98770.13;;;15.12;69.84
40872;BME280;26591;43.264;26.940;2023-05-16T03:57:31;98770.13;;;15.18;70.04
40872;BME280;26591;43.264;26.940;2023-05-16T03:59:57;98770.94;;;15.32;69.90
40872;BME280;26591;43.264;26.940;2023-05-16T04:02:22;98767.09;;;15.35;69.97
40872;BME280;26591;43.264;26.940;2023-05-16T04:04:48;98770.56;;;15.35;69.79
40872;BME280;26591;43.264;26.940;2023-05-16T04:07:14;98768.28;;;15.19;69.98
40872;BME280;26591;43.264;26.940;2023-05-16T04:09:39;98762.56;;;15.35;69.99
40872;BME280;26591;43.264;26.940;2023-05-16T04:12:05;98760.28;;;15.25;70.44
40872;BME280;26591;43.264;26.940;2023-05-16T04:14:31;98751.69;;;15.37;70.58
40872;BME280;26591;43.264;26.940;2023-05-16T04:16:56;98755.81;;;15.53;70.55
40872;BME280;26591;43.264;26.940;2023-05-16T04:19:22;98746.78;;;15.61;70.09
40872;BME280;26591;43.264;26.940;2023-05-16T04:21:47;98753.72;;;15.82;69.46
40872;BME280;26591;43.264;26.940;2023-05-16T04:24:13;98750.84;;;15.83;70.42
40872;BME280;26591;43.264;26.940;2023-05-16T04:26:38;98745.09;;;16.07;69.67
40872;BME280;26591;43.264;26.940;2023-05-16T04:29:04;98753.00;;;16.33;68.24
40872;BME280;26591;43.264;26.940;2023-05-16T04:31:30;98751.69;;;16.63;67.51
40872;BME280;26591;43.264;26.940;2023-05-16T04:33:55;98746.41;;;16.88;66.54
40872;BME280;26591;43.264;26.940;2023-05-16T04:36:22;98756.88;;;17.29;65.29
40872;BME280;26591;43.264;26.940;2023-05-16T04:38:48;98749.63;;;17.61;63.86
40872;BME280;26591;43.264;26.940;2023-05-16T04:41:14;98749.97;;;17.90;62.00
40872;BME280;26591;43.264;26.940;2023-05-16T04:43:39;98747.03;;;18.17;61.42
40872;BME280;26591;43.264;26.940;2023-05-16T04:46:06;98747.50;;;18.14;60.78
40872;BME280;26591;43.264;26.940;2023-05-16T04:48:32;98743.47;;;18.05;61.21
40872;BME280;26591;43.264;26.940;2023-05-16T04:50:58;98750.72;;;18.23;60.64
40872;BME280;26591;43.264;26.940;2023-05-16T04:53:24;98744.97;;;17.75;61.46
40872;BME280;26591;43.264;26.940;2023-05-16T04:55:50;98747.22;;;17.97;61.62
40872;BME280;26591;43.264;26.940;2023-05-16T04:58:15;98748.16;;;18.28;60.59
40872;BME280;26591;43.264;26.940;2023-05-16T05:00:41;98739.94;;;18.29;60.51
40872;BME280;26591;43.264;26.940;2023-05-16T05:03:07;98741.59;;;18.61;59.82
40872;BME280;26591;43.264;26.940;2023-05-16T05:05:33;98742.22;;;18.75;59.37
40872;BME280;26591;43.264;26.940;2023-05-16T05:07:58;98739.88;;;18.97;58.08
40872;BME280;26591;43.264;26.940;2023-05-16T05:10:25;98747.31;;;19.26;57.98
40872;BME280;26591;43.264;26.940;2023-05-16T05:12:52;98743.72;;;19.44;58.18
40872;BME280;26591;43.264;26.940;2023-05-16T05:15:18;98747.00;;;19.46;57.21
40872;BME280;26591;43.264;26.940;2023-05-16T05:17:43;98749.75;;;19.27;58.24
40872;BME280;26591;43.264;26.940;2023-05-16T05:20:09;98747.47;;;19.43;57.63
40872;BME280;26591;43.264;26.940;2023-05-16T05:22:35;98752.63;;;19.44;57.04
40872;BME280;26591;43.264;26.940;2023-05-16T05:25:01;98748.41;;;19.48;57.84
40872;BME280;26591;43.264;26.940;2023-05-16T05:27:27;98747.28;;;18.83;58.60
40872;BME280;26591;43.264;26.940;2023-05-16T05:29:53;98747.03;;;18.73;59.33
40872;BME280;26591;43.264;26.940;2023-05-16T05:32:18;98750.72;;;18.23;60.83
40872;BME280;26591;43.264;26.940;2023-05-16T05:34:44;98744.13;;;17.56;62.69
40872;BME280;26591;43.264;26.940;2023-05-16T05:37:09;98743.56;;;17.47;63.01
40872;BME280;26591;43.264;26.940;2023-05-16T05:39:35;98744.38;;;17.22;64.62
40872;BME280;26591;43.264;26.940;2023-05-16T05:42:01;98741.88;;;17.28;64.94
40872;BME280;26591;43.264;26.940;2023-05-16T05:44:29;98748.09;;;17.47;65.32
40872;BME280;26591;43.264;26.940;2023-05-16T05:46:55;98759.66;;;17.15;65.89
40872;BME280;26591;43.264;26.940;2023-05-16T05:49:23;98763.59;;;17.13;66.95
40872;BME280;26591;43.264;26.940;2023-05-16T05:51:49;98759.22;;;17.44;65.98
40872;BME280;26591;43.264;26.940;2023-05-16T05:54:18;98759.53;;;17.79;63.85
40872;BME280;26591;43.264;26.940;2023-05-16T05:56:44;98757.91;;;18.04;63.70
40872;BME280;26591;43.264;26.940;2023-05-16T05:59:10;98758.75;;;17.53;63.70
40872;BME280;26591;43.264;26.940;2023-05-16T06:01:35;98756.41;;;17.38;64.66
40872;BME280;26591;43.264;26.940;2023-05-16T06:04:02;98768.78;;;17.58;64.31
40872;BME280;26591;43.264;26.940;2023-05-16T06:06:27;98771.13;;;17.48;62.55
40872;BME280;26591;43.264;26.940;2023-05-16T06:08:53;98772.94;;;17.29;64.10
40872;BME280;26591;43.264;26.940;2023-05-16T06:11:19;98770.44;;;17.02;63.17
40872;BME280;26591;43.264;26.940;2023-05-16T06:13:46;98772.53;;;16.86;64.71
40872;BME280;26591;43.264;26.940;2023-05-16T06:16:11;98766.53;;;17.30;62.55
40872;BME280;26591;43.264;26.940;2023-05-16T06:18:37;98768.69;;;17.14;63.32
40872;BME280;26591;43.264;26.940;2023-05-16T06:21:02;98767.84;;;17.20;63.85
40872;BME280;26591;43.264;26.940;2023-05-16T06:23:28;98776.84;;;17.26;63.19
40872;BME280;26591;43.264;26.940;2023-05-16T06:25:53;98772.59;;;17.69;62.64
40872;BME280;26591;43.264;26.940;2023-05-16T06:28:19;98770.75;;;17.12;62.47
40872;BME280;26591;43.264;26.940;2023-05-16T06:30:44;98775.97;;;17.32;62.46
40872;BME280;26591;43.264;26.940;2023-05-16T06:33:15;98773.59;;;17.49;62.34
40872;BME280;26591;43.264;26.940;2023-05-16T06:35:42;98769.88;;;17.76;61.76
40872;BME280;26591;43.264;26.940;2023-05-16T06:38:08;98769.53;;;17.91;61.48
40872;BME280;26591;43.264;26.940;2023-05-16T06:40:33;98771.69;;;17.57;61.00
40872;BME280;26591;43.264;26.940;2023-05-16T06:42:59;98774.56;;;18.06;60.35
40872;BME280;26591;43.264;26.940;2023-05-16T06:45:25;98766.22;;;17.70;60.96
40872;BME280;26591;43.264;26.940;2023-05-16T06:47:50;98769.13;;;18.12;59.87
40872;BME280;26591;43.264;26.940;2023-05-16T06:50:16;98769.78;;;18.64;58.53
40872;BME280;26591;43.264;26.940;2023-05-16T06:52:42;98771.25;;;18.97;58.27
40872;BME280;26591;43.264;26.940;2023-05-16T06:55:08;98774.91;;;19.57;57.25
40872;BME280;26591;43.264;26.940;2023-05-16T06:57:33;98762.72;;;19.18;57.30
40872;BME280;26591;43.264;26.940;2023-05-16T06:59:59;98766.53;;;19.11;58.33
40872;BME280;26591;43.264;26.940;2023-05-16T07:02:24;98761.47;;;19.33;57.63
40872;BME280;26591;43.264;26.940;2023-05-16T07:04:50;98767.09;;;18.82;57.18
40872;BME280;26591;43.264;26.940;2023-05-16T07:07:16;98760.28;;;18.49;59.11
40872;BME280;26591;43.264;26.940;2023-05-16T07:09:41;98763.97;;;19.16;57.95
40872;BME280;26591;43.264;26.940;2023-05-16T07:12:07;98755.91;;;19.70;55.66
40872;BME280;26591;43.264;26.940;2023-05-16T07:14:33;98760.22;;;19.47;55.37
40872;BME280;26591;43.264;26.940;2023-05-16T07:16:59;98761.00;;;19.48;54.53
40872;BME280;26591;43.264;26.940;2023-05-16T07:19:24;98765.00;;;19.03;53.38
40872;BME280;26591;43.264;26.940;2023-05-16T07:21:50;98758.91;;;19.50;53.21
40872;BME280;26591;43.264;26.940;2023-05-16T07:24:15;98766.44;;;19.17;54.15
40872;BME280;26591;43.264;26.940;2023-05-16T07:26:41;98761.50;;;19.80;53.16
40872;BME280;26591;43.264;26.940;2023-05-16T07:29:06;98767.22;;;19.60;53.04
40872;BME280;26591;43.264;26.940;2023-05-16T07:31:32;98763.38;;;19.80;53.76
40872;BME280;26591;43.264;26.940;2023-05-16T07:33:57;98768.66;;;19.87;53.37
40872;BME280;26591;43.264;26.940;2023-05-16T07:36:23;98769.00;;;19.90;53.18
40872;BME280;26591;43.264;26.940;2023-05-16T07:38:48;98768.19;;;19.90;53.44
40872;BME280;26591;43.264;26.940;2023-05-16T07:41:14;98779.25;;;19.70;53.82
40872;BME280;26591;43.264;26.940;2023-05-16T07:43:39;98772.03;;;19.16;55.56
40872;BME280;26591;43.264;26.940;2023-05-16T07:46:05;98780.84;;;19.47;50.92
40872;BME280;26591;43.264;26.940;2023-05-16T07:48:30;98768.94;;;19.43;51.56
40872;BME280;26591;43.264;26.940;2023-05-16T07:50:56;98771.44;;;19.80;52.71
40872;BME280;26591;43.264;26.940;2023-05-16T07:53:22;98768.38;;;20.36;50.80
40872;BME280;26591;43.264;26.940;2023-05-16T07:55:48;98771.69;;;20.14;50.08
40872;BME280;26591;43.264;26.940;2023-05-16T07:58:14;98766.06;;;20.27;48.73
40872;BME280;26591;43.264;26.940;2023-05-16T08:00:39;98770.63;;;19.91;49.87
40872;BME280;26591;43.264;26.940;2023-05-16T08:03:05;98770.06;;;20.13;50.60
40872;BME280;26591;43.264;26.940;2023-05-16T08:05:31;98771.28;;;19.51;52.38
40872;BME280;26591;43.264;26.940;2023-05-16T08:07:57;98769.34;;;19.94;51.00
40872;BME280;26591;43.264;26.940;2023-05-16T08:10:22;98763.34;;;19.56;50.57
40872;BME280;26591;43.264;26.940;2023-05-16T08:12:48;98766.94;;;19.38;51.29
40872;BME280;26591;43.264;26.940;2023-05-16T08:15:14;98757.50;;;19.59;51.13
40872;BME280;26591;43.264;26.940;2023-05-16T08:17:40;98770.97;;;19.71;49.43
40872;BME280;26591;43.264;26.940;2023-05-16T08:20:06;98774.09;;;19.68;50.03
40872;BME280;26591;43.264;26.940;2023-05-16T08:22:32;98770.03;;;19.65;50.68
40872;BME280;26591;43.264;26.940;2023-05-16T08:24:58;98777.53;;;19.99;49.83
40872;BME280;26591;43.264;26.940;2023-05-16T08:27:26;98773.00;;;20.00;51.20
40872;BME280;26591;43.264;26.940;2023-05-16T08:29:51;98776.47;;;20.12;52.44
40872;BME280;26591;43.264;26.940;2023-05-16T08:32:17;98778.91;;;20.02;51.51
40872;BME280;26591;43.264;26.940;2023-05-16T08:34:42;98778.47;;;20.05;52.66
40872;BME280;26591;43.264;26.940;2023-05-16T08:37:08;98775.69;;;20.52;51.27
40872;BME280;26591;43.264;26.940;2023-05-16T08:39:34;98767.38;;;20.54;52.24
40872;BME280;26591;43.264;26.940;2023-05-16T08:42:00;98778.59;;;21.03;50.27
40872;BME280;26591;43.264;26.940;2023-05-16T08:44:27;98779.22;;;20.94;50.71
40872;BME280;26591;43.264;26.940;2023-05-16T08:46:53;98774.91;;;21.56;50.74
40872;BME280;26591;43.264;26.940;2023-05-16T08:49:20;98770.22;;;21.34;48.11
40872;BME280;26591;43.264;26.940;2023-05-16T08:51:46;98771.06;;;21.52;49.75
40872;BME280;26591;43.264;26.940;2023-05-16T08:54:13;98769.94;;;21.82;49.17
40872;BME280;26591;43.264;26.940;2023-05-16T08:56:43;98776.47;;;21.86;47.94
40872;BME280;26591;43.264;26.940;2023-05-16T08:59:10;98776.56;;;21.91;47.47
40872;BME280;26591;43.264;26.940;2023-05-16T09:01:36;98754.22;;;21.27;48.35
40872;BME280;26591;43.264;26.940;2023-05-16T09:04:03;98769.91;;;21.47;48.55
40872;BME280;26591;43.264;26.940;2023-05-16T09:06:29;98773.69;;;21.80;48.10
40872;BME280;26591;43.264;26.940;2023-05-16T09:08:55;98762.81;;;21.58;47.92
40872;BME280;26591;43.264;26.940;2023-05-16T09:11:21;98762.25;;;21.90;47.50
40872;BME280;26591;43.264;26.940;2023-05-16T09:13:47;98752.13;;;21.29;47.10
40872;BME280;26591;43.264;26.940;2023-05-16T09:16:21;98757.13;;;21.89;47.48
40872;BME280;26591;43.264;26.940;2023-05-16T09:18:59;98751.31;;;21.97;47.21
40872;BME280;26591;43.264;26.940;2023-05-16T09:21:27;98764.53;;;22.21;47.17
40872;BME280;26591;43.264;26.940;2023-05-16T09:23:53;98752.47;;;21.67;46.89
40872;BME280;26591;43.264;26.940;2023-05-16T09:26:19;98747.59;;;21.81;47.76
40872;BME280;26591;43.264;26.940;2023-05-16T09:28:46;98755.09;;;21.79;47.59
40872;BME280;26591;43.264;26.940;2023-05-16T09:31:26;98749.34;;;21.58;47.12
40872;BME280;26591;43.264;26.940;2023-05-16T09:33:57;98740.66;;;21.68;46.30
40872;BME280;26591;43.264;26.940;2023-05-16T09:36:24;98743.47;;;21.78;46.58
40872;BME280;26591;43.264;26.940;2023-05-16T09:38:51;98731.09;;;22.61;45.51
40872;BME280;26591;43.264;26.940;2023-05-16T09:43:43;98739.19;;;23.16;44.80
40872;BME280;26591;43.264;26.940;2023-05-16T09:46:15;98727.50;;;23.33;43.45
40872;BME280;26591;43.264;26.940;2023-05-16T09:48:45;98734.56;;;22.84;43.87
40872;BME280;26591;43.264;26.940;2023-05-16T09:51:12;98721.22;;;22.45;44.80
40872;BME280;26591;43.264;26.940;2023-05-16T09:53:38;98719.25;;;22.90;44.66
40872;BME280;26591;43.264;26.940;2023-05-16T09:56:10;98711.88;;;23.40;43.75
40872;BME280;26591;43.264;26.940;2023-05-16T09:58:38;98706.25;;;23.46;43.74
40872;BME280;26591;43.264;26.940;2023-05-16T10:01:05;98699.44;;;23.39;42.26
40872;BME280;26591;43.264;26.940;2023-05-16T10:03:33;98696.44;;;23.73;43.20
40872;BME280;26591;43.264;26.940;2023-05-16T10:06:00;98697.03;;;23.80;43.07
40872;BME280;26591;43.264;26.940;2023-05-16T10:08:26;98685.47;;;23.95;41.52
40872;BME280;26591;43.264;26.940;2023-05-16T10:10:54;98681.34;;;23.77;41.34
40872;BME280;26591;43.264;26.940;2023-05-16T10:13:22;98682.06;;;24.15;42.08
40872;BME280;26591;43.264;26.940;2023-05-16T10:15:49;98685.63;;;23.30;43.26
40872;BME280;26591;43.264;26.940;2023-05-16T10:18:20;98676.06;;;23.98;42.83
40872;BME280;26591;43.264;26.940;2023-05-16T10:20:48;98678.53;;;24.10;42.75
40872;BME280;26591;43.264;26.940;2023-05-16T10:23:18;98655.53;;;24.02;42.89
40872;BME280;26591;43.264;26.940;2023-05-16T10:25:47;98658.84;;;24.19;42.42
40872;BME280;26591;43.264;26.940;2023-05-16T10:28:14;98674.28;;;24.34;41.74
40872;BME280;26591;43.264;26.940;2023-05-16T10:30:42;98674.34;;;24.50;41.88
40872;BME280;26591;43.264;26.940;2023-05-16T10:33:11;98677.03;;;24.50;42.30
40872;BME280;26591;43.264;26.940;2023-05-16T10:35:37;98677.41;;;25.00;40.89
40872;BME280;26591;43.264;26.940;2023-05-16T10:38:04;98670.91;;;25.17;40.28
40872;BME280;26591;43.264;26.940;2023-05-16T10:40:31;98676.91;;;24.98;41.21
40872;BME280;26591;43.264;26.940;2023-05-16T10:43:01;98669.56;;;25.09;40.29
40872;BME280;26591;43.264;26.940;2023-05-16T10:45:28;98679.84;;;25.33;40.55
40872;BME280;26591;43.264;26.940;2023-05-16T10:47:59;98663.34;;;25.19;40.58
40872;BME280;26591;43.264;26.940;2023-05-16T10:50:41;98664.41;;;25.38;39.56
40872;BME280;26591;43.264;26.940;2023-05-16T10:53:22;98662.22;;;24.68;41.30
40872;BME280;26591;43.264;26.940;2023-05-16T11:14:25;98635.19;;;24.94;41.54
40872;BME280;26591;43.264;26.940;2023-05-16T11:19:51;98638.69;;;25.51;39.69
40872;BME280;26591;43.264;26.940;2023-05-16T11:22:31;98637.53;;;25.68;40.65
40872;BME280;26591;43.264;26.940;2023-05-16T11:25:10;98629.72;;;25.61;39.57
40872;BME280;26591;43.264;26.940;2023-05-16T11:27:42;98617.31;;;26.10;40.01
40872;BME280;26591;43.264;26.940;2023-05-16T11:30:17;98626.34;;;25.95;40.09
40872;BME280;26591;43.264;26.940;2023-05-16T11:32:45;98612.09;;;26.29;39.59
40872;BME280;26591;43.264;26.940;2023-05-16T11:35:14;98614.38;;;26.12;39.74
40872;BME280;26591;43.264;26.940;2023-05-16T11:37:40;98616.81;;;26.03;40.13
40872;BME280;26591;43.264;26.940;2023-05-16T11:40:08;98613.69;;;25.70;40.40
40872;BME280;26591;43.264;26.940;2023-05-16T11:42:46;98598.03;;;25.56;41.26
40872;BME280;26591;43.264;26.940;2023-05-16T11:45:21;98591.56;;;26.08;40.08
40872;BME280;26591;43.264;26.940;2023-05-16T11:47:50;98595.13;;;26.03;39.96
40872;BME280;26591;43.264;26.940;2023-05-16T11:50:18;98588.53;;;25.64;40.40
40872;BME280;26591;43.264;26.940;2023-05-16T11:52:49;98586.28;;;25.87;40.58
40872;BME280;26591;43.264;26.940;2023-05-16T11:55:19;98586.78;;;25.89;40.68
40872;BME280;26591;43.264;26.940;2023-05-16T11:57:48;98580.19;;;26.16;40.85
40872;BME280;26591;43.264;26.940;2023-05-16T12:00:18;98574.06;;;25.84;40.11
40872;BME280;26591;43.264;26.940;2023-05-16T12:02:45;98574.72;;;25.55;40.65
40872;BME280;26591;43.264;26.940;2023-05-16T12:05:15;98570.69;;;25.53;40.87
40872;BME280;26591;43.264;26.940;2023-05-16T12:07:44;98576.41;;;25.31;40.39
40872;BME280;26591;43.264;26.940;2023-05-16T12:10:12;98572.84;;;25.56;41.01
40872;BME280;26591;43.264;26.940;2023-05-16T12:12:40;98568.13;;;25.82;39.99
40872;BME280;26591;43.264;26.940;2023-05-16T12:15:07;98561.38;;;25.74;39.81
40872;BME280;26591;43.264;26.940;2023-05-16T12:17:38;98573.59;;;25.67;39.43
40872;BME280;26591;43.264;26.940;2023-05-16T12:20:04;98565.84;;;25.34;40.26
40872;BME280;26591;43.264;26.940;2023-05-16T12:22:31;98554.84;;;25.81;40.01
40872;BME280;26591;43.264;26.940;2023-05-16T12:25:27;98550.53;;;26.30;38.88
40872;BME280;26591;43.264;26.940;2023-05-16T12:27:53;98551.44;;;26.15;39.48
40872;BME280;26591;43.264;26.940;2023-05-16T12:30:24;98548.09;;;25.78;40.06
40872;BME280;26591;43.264;26.940;2023-05-16T12:32:56;98542.91;;;25.87;40.63
40872;BME280;26591;43.264;26.940;2023-05-16T12:35:23;98550.28;;;25.71;40.09
40872;BME280;26591;43.264;26.940;2023-05-16T12:37:49;98547.31;;;25.67;40.05
40872;BME280;26591;43.264;26.940;2023-05-16T12:40:17;98558.72;;;25.69;40.02
40872;BME280;26591;43.264;26.940;2023-05-16T12:42:48;98560.88;;;25.67;40.13
40872;BME280;26591;43.264;26.940;2023-05-16T12:45:15;98559.06;;;25.42;40.16
40872;BME280;26591;43.264;26.940;2023-05-16T12:47:41;98554.25;;;25.13;39.86
40872;BME280;26591;43.264;26.940;2023-05-16T12:50:10;98566.25;;;25.78;39.67
40872;BME280;26591;43.264;26.940;2023-05-16T12:52:49;98565.88;;;25.29;38.97
40872;BME280;26591;43.264;26.940;2023-05-16T12:55:16;98569.13;;;25.21;40.11
40872;BME280;26591;43.264;26.940;2023-05-16T12:57:43;98576.69;;;25.29;39.33
40872;BME280;26591;43.264;26.940;2023-05-16T13:00:10;98577.50;;;25.24;39.67
40872;BME280;26591;43.264;26.940;2023-05-16T13:02:45;98567.75;;;25.34;40.00
40872;BME280;26591;43.264;26.940;2023-05-16T13:05:11;98574.56;;;25.00;39.48
40872;BME280;26591;43.264;26.940;2023-05-16T13:07:37;98572.66;;;25.11;40.61
40872;BME280;26591;43.264;26.940;2023-05-16T13:10:11;98581.84;;;25.15;39.66
40872;BME280;26591;43.264;26.940;2023-05-16T13:12:37;98575.03;;;25.33;38.12
40872;BME280;26591;43.264;26.940;2023-05-16T13:15:07;98569.66;;;25.43;39.60
40872;BME280;26591;43.264;26.940;2023-05-16T13:17:34;98572.91;;;25.20;39.69
40872;BME280;26591;43.264;26.940;2023-05-16T13:19:59;98573.94;;;25.34;39.78
40872;BME280;26591;43.264;26.940;2023-05-16T13:22:26;98571.72;;;25.67;39.14
40872;BME280;26591;43.264;26.940;2023-05-16T13:24:51;98569.28;;;25.66;38.55
40872;BME280;26591;43.264;26.940;2023-05-16T13:27:17;98559.34;;;25.30;37.61
40872;BME280;26591;43.264;26.940;2023-05-16T13:29:43;98562.59;;;25.32;38.37
40872;BME280;26591;43.264;26.940;2023-05-16T13:32:09;98569.94;;;25.11;38.70
40872;BME280;26591;43.264;26.940;2023-05-16T13:34:34;98560.78;;;24.86;39.57